Terminal Aerodrome Forecast
Issued by NWS Dodge City, KS

Home | Current Version | Previous Version | Text Only | Print | Product List | Glossary On
Versions: 1 2 3 4 5 6 7 8 9 10 11 12 13 14 15 16 17 18 19 20 21 22 23 24 25 26 27 28 29 30 31 32 33
000
FTUS43 KDDC 071540 AAC
TAFDDC
TAF AMD
KDDC 071540Z 0716/0812 05014G20KT 2SM FU BKN015 OVC050
     FM072100 05012KT P6SM BKN050
     FM080000 08010KT P6SM SKC=

USA.gov is the U.S. government's official web portal to all federal, state and local government web resources and services.